sensor_id;sensor_type;location;lat;lon;timestamp;temperature;humidity
21282;DHT22;10800;53.096;18.328;2022-10-14T00:04:11;6.50;99.90
21282;DHT22;10800;53.096;18.328;2022-10-14T00:09:17;6.50;99.90
21282;DHT22;10800;53.096;18.328;2022-10-14T00:14:22;6.40;99.90
21282;DHT22;10800;53.096;18.328;2022-10-14T00:19:27;6.40;99.90
21282;DHT22;10800;53.096;18.328;2022-10-14T00:24:33;6.40;99.90
21282;DHT22;10800;53.096;18.328;2022-10-14T00:29:38;6.40;99.90
21282;DHT22;10800;53.096;18.328;2022-10-14T00:34:43;6.30;99.90
21282;DHT22;10800;53.096;18.328;2022-10-14T00:39:49;6.30;99.90
21282;DHT22;10800;53.096;18.328;2022-10-14T00:44:58;6.30;99.90
21282;DHT22;10800;53.096;18.328;2022-10-14T00:50:04;6.30;99.90
21282;DHT22;10800;53.096;18.328;2022-10-14T00:55:12;6.30;99.90
21282;DHT22;10800;53.096;18.328;2022-10-14T01:00:19;6.30;99.90
21282;DHT22;10800;53.096;18.328;2022-10-14T01:05:30;6.20;99.90
21282;DHT22;10800;53.096;18.328;2022-10-14T01:16:22;6.20;99.90
21282;DHT22;10800;53.096;18.328;2022-10-14T01:21:51;6.20;99.90
21282;DHT22;10800;53.096;18.328;2022-10-14T01:32:06;6.30;99.90
21282;DHT22;10800;53.096;18.328;2022-10-14T01:37:14;6.30;99.90
21282;DHT22;10800;53.096;18.328;2022-10-14T01:42:23;6.30;99.90
21282;DHT22;10800;53.096;18.328;2022-10-14T01:47:30;6.30;99.90
21282;DHT22;10800;53.096;18.328;2022-10-14T01:52:39;6.20;99.90
21282;DHT22;10800;53.096;18.328;2022-10-14T01:57:46;6.20;99.90
21282;DHT22;10800;53.096;18.328;2022-10-14T02:02:53;6.20;99.90
21282;DHT22;10800;53.096;18.328;2022-10-14T02:19:01;6.40;99.90
21282;DHT22;10800;53.096;18.328;2022-10-14T02:24:12;6.50;99.90
21282;DHT22;10800;53.096;18.328;2022-10-14T02:29:17;6.50;99.90
21282;DHT22;10800;53.096;18.328;2022-10-14T02:34:25;6.50;99.90
21282;DHT22;10800;53.096;18.328;2022-10-14T02:39:36;6.50;99.90
21282;DHT22;10800;53.096;18.328;2022-10-14T02:44:57;6.50;99.90
21282;DHT22;10800;53.096;18.328;2022-10-14T02:50:03;6.40;99.90
21282;DHT22;10800;53.096;18.328;2022-10-14T02:55:08;6.40;99.90
21282;DHT22;10800;53.096;18.328;2022-10-14T03:00:14;6.40;99.90
21282;DHT22;10800;53.096;18.328;2022-10-14T03:05:19;6.40;99.90
21282;DHT22;10800;53.096;18.328;2022-10-14T03:10:25;6.30;99.90
21282;DHT22;10800;53.096;18.328;2022-10-14T03:15:30;6.30;99.90
21282;DHT22;10800;53.096;18.328;2022-10-14T03:20:36;6.20;99.90
21282;DHT22;10800;53.096;18.328;2022-10-14T03:25:43;6.20;99.90
21282;DHT22;10800;53.096;18.328;2022-10-14T03:30:48;6.10;99.90
21282;DHT22;10800;53.096;18.328;2022-10-14T03:35:54;6.10;99.90
21282;DHT22;10800;53.096;18.328;2022-10-14T03:40:59;6.20;99.90
21282;DHT22;10800;53.096;18.328;2022-10-14T03:46:05;6.20;99.90
21282;DHT22;10800;53.096;18.328;2022-10-14T03:51:10;6.20;99.90
21282;DHT22;10800;53.096;18.328;2022-10-14T03:56:16;6.20;99.90
21282;DHT22;10800;53.096;18.328;2022-10-14T04:01:21;6.20;99.90
21282;DHT22;10800;53.096;18.328;2022-10-14T04:06:27;6.20;99.90
21282;DHT22;10800;53.096;18.328;2022-10-14T04:11:34;6.20;99.90
21282;DHT22;10800;53.096;18.328;2022-10-14T04:16:40;6.30;99.90
21282;DHT22;10800;53.096;18.328;2022-10-14T04:21:47;6.30;99.90
21282;DHT22;10800;53.096;18.328;2022-10-14T04:26:53;6.40;99.90
21282;DHT22;10800;53.096;18.328;2022-10-14T04:31:58;6.40;99.90
21282;DHT22;10800;53.096;18.328;2022-10-14T04:37:04;6.40;99.90
21282;DHT22;10800;53.096;18.328;2022-10-14T04:42:09;6.40;99.90
21282;DHT22;10800;53.096;18.328;2022-10-14T04:47:16;6.50;99.90
21282;DHT22;10800;53.096;18.328;2022-10-14T04:52:21;6.50;99.90
21282;DHT22;10800;53.096;18.328;2022-10-14T04:57:28;6.60;99.90
21282;DHT22;10800;53.096;18.328;2022-10-14T05:02:33;6.60;99.90
21282;DHT22;10800;53.096;18.328;2022-10-14T05:07:39;6.60;99.90
21282;DHT22;10800;53.096;18.328;2022-10-14T05:12:45;6.70;99.90
21282;DHT22;10800;53.096;18.328;2022-10-14T05:17:50;6.70;99.90
21282;DHT22;10800;53.096;18.328;2022-10-14T05:22:57;6.70;99.90
21282;DHT22;10800;53.096;18.328;2022-10-14T05:28:02;6.70;99.90
21282;DHT22;10800;53.096;18.328;2022-10-14T05:33:08;6.70;99.90
21282;DHT22;10800;53.096;18.328;2022-10-14T05:38:14;6.70;99.90
21282;DHT22;10800;53.096;18.328;2022-10-14T05:43:20;6.70;99.90
21282;DHT22;10800;53.096;18.328;2022-10-14T05:48:27;6.80;99.90
21282;DHT22;10800;53.096;18.328;2022-10-14T05:53:35;6.80;99.90
21282;DHT22;10800;53.096;18.328;2022-10-14T05:58:42;6.80;99.90
21282;DHT22;10800;53.096;18.328;2022-10-14T06:03:51;6.90;99.90
21282;DHT22;10800;53.096;18.328;2022-10-14T06:09:01;6.90;99.90
21282;DHT22;10800;53.096;18.328;2022-10-14T06:14:04;7.00;99.90
21282;DHT22;10800;53.096;18.328;2022-10-14T06:19:15;7.10;99.90
21282;DHT22;10800;53.096;18.328;2022-10-14T06:24:22;7.10;99.90
21282;DHT22;10800;53.096;18.328;2022-10-14T06:29:27;7.20;99.90
21282;DHT22;10800;53.096;18.328;2022-10-14T06:34:34;7.30;99.90
21282;DHT22;10800;53.096;18.328;2022-10-14T06:39:44;7.30;99.90
21282;DHT22;10800;53.096;18.328;2022-10-14T06:44:51;7.40;99.90
21282;DHT22;10800;53.096;18.328;2022-10-14T06:49:56;7.50;99.90
21282;DHT22;10800;53.096;18.328;2022-10-14T06:55:02;7.70;99.90
21282;DHT22;10800;53.096;18.328;2022-10-14T07:00:13;7.90;99.90
21282;DHT22;10800;53.096;18.328;2022-10-14T07:05:19;8.10;99.90
21282;DHT22;10800;53.096;18.328;2022-10-14T07:10:25;8.20;99.90
21282;DHT22;10800;53.096;18.328;2022-10-14T07:15:30;8.30;99.90
21282;DHT22;10800;53.096;18.328;2022-10-14T07:20:40;8.40;99.90
21282;DHT22;10800;53.096;18.328;2022-10-14T07:25:50;8.60;99.90
21282;DHT22;10800;53.096;18.328;2022-10-14T07:31:00;8.50;99.90
21282;DHT22;10800;53.096;18.328;2022-10-14T07:36:08;8.50;99.90
21282;DHT22;10800;53.096;18.328;2022-10-14T07:41:17;8.60;99.90
21282;DHT22;10800;53.096;18.328;2022-10-14T07:46:24;9.00;99.90
21282;DHT22;10800;53.096;18.328;2022-10-14T07:51:35;9.10;99.90
21282;DHT22;10800;53.096;18.328;2022-10-14T07:56:42;9.10;99.90
21282;DHT22;10800;53.096;18.328;2022-10-14T08:01:49;9.60;99.90
21282;DHT22;10800;53.096;18.328;2022-10-14T08:06:56;10.40;99.90
21282;DHT22;10800;53.096;18.328;2022-10-14T08:12:01;10.90;99.90
21282;DHT22;10800;53.096;18.328;2022-10-14T08:17:06;11.30;99.90
21282;DHT22;10800;53.096;18.328;2022-10-14T08:22:12;11.50;99.90
21282;DHT22;10800;53.096;18.328;2022-10-14T08:27:17;11.70;99.90
21282;DHT22;10800;53.096;18.328;2022-10-14T08:32:23;12.30;99.90
21282;DHT22;10800;53.096;18.328;2022-10-14T08:37:28;12.80;99.90
21282;DHT22;10800;53.096;18.328;2022-10-14T08:47:52;12.60;99.90
21282;DHT22;10800;53.096;18.328;2022-10-14T08:53:15;13.40;99.90
21282;DHT22;10800;53.096;18.328;2022-10-14T08:58:29;13.60;99.90
21282;DHT22;10800;53.096;18.328;2022-10-14T09:03:30;13.40;99.90
21282;DHT22;10800;53.096;18.328;2022-10-14T09:08:42;13.70;99.90
21282;DHT22;10800;53.096;18.328;2022-10-14T09:13:57;13.90;99.90
21282;DHT22;10800;53.096;18.328;2022-10-14T09:19:05;14.10;99.90
21282;DHT22;10800;53.096;18.328;2022-10-14T09:24:18;14.20;99.90
21282;DHT22;10800;53.096;18.328;2022-10-14T09:29:35;14.30;99.90
21282;DHT22;10800;53.096;18.328;2022-10-14T09:34:40;14.30;99.90
21282;DHT22;10800;53.096;18.328;2022-10-14T09:39:47;14.60;99.90
21282;DHT22;10800;53.096;18.328;2022-10-14T09:45:08;15.50;99.90
21282;DHT22;10800;53.096;18.328;2022-10-14T09:50:38;16.30;99.90
21282;DHT22;10800;53.096;18.328;2022-10-14T09:55:48;16.60;99.90
21282;DHT22;10800;53.096;18.328;2022-10-14T10:00:56;17.10;99.90
21282;DHT22;10800;53.096;18.328;2022-10-14T10:06:12;17.40;99.90
21282;DHT22;10800;53.096;18.328;2022-10-14T10:11:38;17.40;99.90
21282;DHT22;10800;53.096;18.328;2022-10-14T10:16:30;17.90;99.90
21282;DHT22;10800;53.096;18.328;2022-10-14T10:21:38;17.70;99.90
21282;DHT22;10800;53.096;18.328;2022-10-14T10:26:43;17.90;99.90
21282;DHT22;10800;53.096;18.328;2022-10-14T10:31:58;18.10;99.90
21282;DHT22;10800;53.096;18.328;2022-10-14T10:42:51;18.30;99.90
21282;DHT22;10800;53.096;18.328;2022-10-14T10:48:10;18.60;99.90
21282;DHT22;10800;53.096;18.328;2022-10-14T11:04:28;18.90;99.50
21282;DHT22;10800;53.096;18.328;2022-10-14T11:09:40;19.10;98.20
21282;DHT22;10800;53.096;18.328;2022-10-14T11:15:44;19.20;97.90
21282;DHT22;10800;53.096;18.328;2022-10-14T11:20:45;19.20;96.90
21282;DHT22;10800;53.096;18.328;2022-10-14T11:26:04;19.20;97.60
21282;DHT22;10800;53.096;18.328;2022-10-14T11:36:35;19.40;97.00
21282;DHT22;10800;53.096;18.328;2022-10-14T11:47:01;19.20;96.80
21282;DHT22;10800;53.096;18.328;2022-10-14T11:52:18;19.10;97.00
21282;DHT22;10800;53.096;18.328;2022-10-14T11:57:38;19.20;96.40
21282;DHT22;10800;53.096;18.328;2022-10-14T12:03:09;19.20;95.90
21282;DHT22;10800;53.096;18.328;2022-10-14T12:08:27;19.10;96.40
21282;DHT22;10800;53.096;18.328;2022-10-14T12:13:41;19.10;97.00
21282;DHT22;10800;53.096;18.328;2022-10-14T12:18:53;19.10;97.20
21282;DHT22;10800;53.096;18.328;2022-10-14T12:29:34;18.60;96.10
21282;DHT22;10800;53.096;18.328;2022-10-14T12:34:36;18.40;97.80
21282;DHT22;10800;53.096;18.328;2022-10-14T12:39:43;18.50;97.80
21282;DHT22;10800;53.096;18.328;2022-10-14T12:44:57;18.30;97.40
21282;DHT22;10800;53.096;18.328;2022-10-14T13:06:30;18.40;99.20
21282;DHT22;10800;53.096;18.328;2022-10-14T13:17:29;18.30;98.70
21282;DHT22;10800;53.096;18.328;2022-10-14T13:39:36;18.10;97.60
21282;DHT22;10800;53.096;18.328;2022-10-14T13:45:08;17.80;98.50
21282;DHT22;10800;53.096;18.328;2022-10-14T13:50:33;17.50;99.50
21282;DHT22;10800;53.096;18.328;2022-10-14T13:55:54;17.50;99.90
21282;DHT22;10800;53.096;18.328;2022-10-14T14:01:13;17.40;99.90
21282;DHT22;10800;53.096;18.328;2022-10-14T14:06:32;17.40;99.90
21282;DHT22;10800;53.096;18.328;2022-10-14T14:11:53;17.40;99.90
21282;DHT22;10800;53.096;18.328;2022-10-14T14:17:26;17.40;99.90
21282;DHT22;10800;53.096;18.328;2022-10-14T14:23:17;17.30;99.90
21282;DHT22;10800;53.096;18.328;2022-10-14T14:28:33;17.10;99.90
21282;DHT22;10800;53.096;18.328;2022-10-14T14:33:42;17.00;99.90
21282;DHT22;10800;53.096;18.328;2022-10-14T14:38:59;16.90;99.90
21282;DHT22;10800;53.096;18.328;2022-10-14T14:44:05;16.70;99.90
21282;DHT22;10800;53.096;18.328;2022-10-14T14:49:15;16.60;99.90
21282;DHT22;10800;53.096;18.328;2022-10-14T14:54:30;16.40;99.90
21282;DHT22;10800;53.096;18.328;2022-10-14T15:00:03;16.20;99.90
21282;DHT22;10800;53.096;18.328;2022-10-14T15:05:19;16.20;99.90
21282;DHT22;10800;53.096;18.328;2022-10-14T15:15:54;16.00;99.90
21282;DHT22;10800;53.096;18.328;2022-10-14T15:32:50;15.60;99.90
21282;DHT22;10800;53.096;18.328;2022-10-14T15:38:00;15.50;99.90
21282;DHT22;10800;53.096;18.328;2022-10-14T15:43:18;15.40;99.90
21282;DHT22;10800;53.096;18.328;2022-10-14T15:48:21;15.30;99.90
21282;DHT22;10800;53.096;18.328;2022-10-14T15:53:26;15.30;99.90
21282;DHT22;10800;53.096;18.328;2022-10-14T15:58:33;15.20;99.90
21282;DHT22;10800;53.096;18.328;2022-10-14T16:03:58;15.10;99.90
21282;DHT22;10800;53.096;18.328;2022-10-14T16:09:03;15.00;99.90
21282;DHT22;10800;53.096;18.328;2022-10-14T16:14:09;15.00;99.90
21282;DHT22;10800;53.096;18.328;2022-10-14T16:19:16;14.90;99.90
21282;DHT22;10800;53.096;18.328;2022-10-14T16:24:22;14.80;99.90
21282;DHT22;10800;53.096;18.328;2022-10-14T16:29:29;14.70;99.90
21282;DHT22;10800;53.096;18.328;2022-10-14T16:34:34;14.70;99.90
21282;DHT22;10800;53.096;18.328;2022-10-14T16:39:44;14.60;99.90
21282;DHT22;10800;53.096;18.328;2022-10-14T16:44:46;14.50;99.90
21282;DHT22;10800;53.096;18.328;2022-10-14T16:49:52;14.40;99.90
21282;DHT22;10800;53.096;18.328;2022-10-14T16:54:58;14.40;99.90
21282;DHT22;10800;53.096;18.328;2022-10-14T17:00:03;14.30;99.90
21282;DHT22;10800;53.096;18.328;2022-10-14T17:05:09;14.20;99.90
21282;DHT22;10800;53.096;18.328;2022-10-14T17:10:15;14.20;99.90
21282;DHT22;10800;53.096;18.328;2022-10-14T17:15:20;14.20;99.90
21282;DHT22;10800;53.096;18.328;2022-10-14T17:20:26;14.10;99.90
21282;DHT22;10800;53.096;18.328;2022-10-14T17:25:31;14.10;99.90
21282;DHT22;10800;53.096;18.328;2022-10-14T17:30:37;14.00;99.90
21282;DHT22;10800;53.096;18.328;2022-10-14T17:35:43;13.90;99.90
21282;DHT22;10800;53.096;18.328;2022-10-14T17:40:49;13.90;99.90
21282;DHT22;10800;53.096;18.328;2022-10-14T17:46:07;13.80;99.90
21282;DHT22;10800;53.096;18.328;2022-10-14T17:51:14;13.70;99.90
21282;DHT22;10800;53.096;18.328;2022-10-14T17:56:20;13.70;99.90
21282;DHT22;10800;53.096;18.328;2022-10-14T18:01:29;13.60;99.90
21282;DHT22;10800;53.096;18.328;2022-10-14T18:06:37;13.50;99.90
21282;DHT22;10800;53.096;18.328;2022-10-14T18:11:42;13.40;99.90
21282;DHT22;10800;53.096;18.328;2022-10-14T18:16:50;13.30;99.90
21282;DHT22;10800;53.096;18.328;2022-10-14T18:21:55;13.30;99.90
21282;DHT22;10800;53.096;18.328;2022-10-14T18:27:04;13.20;99.90
21282;DHT22;10800;53.096;18.328;2022-10-14T18:32:10;13.00;99.90
21282;DHT22;10800;53.096;18.328;2022-10-14T18:37:15;12.90;99.90
21282;DHT22;10800;53.096;18.328;2022-10-14T18:42:21;12.80;99.90
21282;DHT22;10800;53.096;18.328;2022-10-14T18:47:30;12.70;99.90
21282;DHT22;10800;53.096;18.328;2022-10-14T18:52:36;12.70;99.90
21282;DHT22;10800;53.096;18.328;2022-10-14T18:57:41;12.60;99.90
21282;DHT22;10800;53.096;18.328;2022-10-14T19:02:47;12.50;99.90
21282;DHT22;10800;53.096;18.328;2022-10-14T19:07:55;12.30;99.90
21282;DHT22;10800;53.096;18.328;2022-10-14T19:13:00;12.20;99.90
21282;DHT22;10800;53.096;18.328;2022-10-14T19:18:08;12.00;99.90
21282;DHT22;10800;53.096;18.328;2022-10-14T19:23:15;11.90;99.90
21282;DHT22;10800;53.096;18.328;2022-10-14T19:28:20;11.80;99.90
21282;DHT22;10800;53.096;18.328;2022-10-14T19:33:28;11.70;99.90
21282;DHT22;10800;53.096;18.328;2022-10-14T19:38:37;11.50;99.90
21282;DHT22;10800;53.096;18.328;2022-10-14T19:43:48;11.30;99.90
21282;DHT22;10800;53.096;18.328;2022-10-14T19:49:00;11.10;99.90
21282;DHT22;10800;53.096;18.328;2022-10-14T19:54:13;11.00;99.90
21282;DHT22;10800;53.096;18.328;2022-10-14T19:59:22;10.80;99.90
21282;DHT22;10800;53.096;18.328;2022-10-14T20:04:46;10.80;99.90
21282;DHT22;10800;53.096;18.328;2022-10-14T20:09:53;10.60;99.90
21282;DHT22;10800;53.096;18.328;2022-10-14T20:15:00;10.60;99.90
21282;DHT22;10800;53.096;18.328;2022-10-14T20:20:07;10.50;99.90
21282;DHT22;10800;53.096;18.328;2022-10-14T20:25:13;10.40;99.90
21282;DHT22;10800;53.096;18.328;2022-10-14T20:30:22;10.50;99.90
21282;DHT22;10800;53.096;18.328;2022-10-14T20:35:29;10.60;99.90
21282;DHT22;10800;53.096;18.328;2022-10-14T20:40:41;10.60;99.90
21282;DHT22;10800;53.096;18.328;2022-10-14T20:45:53;10.80;99.90
21282;DHT22;10800;53.096;18.328;2022-10-14T20:51:03;10.80;99.90
21282;DHT22;10800;53.096;18.328;2022-10-14T20:56:10;10.80;99.90
21282;DHT22;10800;53.096;18.328;2022-10-14T21:01:38;10.90;99.90
21282;DHT22;10800;53.096;18.328;2022-10-14T21:06:43;10.90;99.90
21282;DHT22;10800;53.096;18.328;2022-10-14T21:11:52;10.80;99.90
21282;DHT22;10800;53.096;18.328;2022-10-14T21:17:00;10.80;99.90
21282;DHT22;10800;53.096;18.328;2022-10-14T21:22:27;10.80;99.90
21282;DHT22;10800;53.096;18.328;2022-10-14T21:27:35;10.70;99.90
21282;DHT22;10800;53.096;18.328;2022-10-14T21:33:05;10.70;99.90
21282;DHT22;10800;53.096;18.328;2022-10-14T21:38:36;10.50;99.90
21282;DHT22;10800;53.096;18.328;2022-10-14T21:43:48;10.40;99.90
21282;DHT22;10800;53.096;18.328;2022-10-14T21:48:57;10.30;99.90
21282;DHT22;10800;53.096;18.328;2022-10-14T21:54:05;10.30;99.90
21282;DHT22;10800;53.096;18.328;2022-10-14T21:59:14;10.30;99.90
21282;DHT22;10800;53.096;18.328;2022-10-14T22:04:27;10.30;99.90
21282;DHT22;10800;53.096;18.328;2022-10-14T22:09:42;10.40;99.90
21282;DHT22;10800;53.096;18.328;2022-10-14T22:14:49;10.40;99.90
21282;DHT22;10800;53.096;18.328;2022-10-14T22:20:05;10.50;99.90
21282;DHT22;10800;53.096;18.328;2022-10-14T22:25:12;10.60;99.90
21282;DHT22;10800;53.096;18.328;2022-10-14T22:30:18;10.60;99.90
21282;DHT22;10800;53.096;18.328;2022-10-14T22:35:28;10.70;99.90
21282;DHT22;10800;53.096;18.328;2022-10-14T22:40:34;10.70;99.90
21282;DHT22;10800;53.096;18.328;2022-10-14T22:45:39;10.80;99.90
21282;DHT22;10800;53.096;18.328;2022-10-14T22:50:44;10.80;99.90
21282;DHT22;10800;53.096;18.328;2022-10-14T22:56:17;10.80;99.90
21282;DHT22;10800;53.096;18.328;2022-10-14T23:01:25;10.80;99.90
21282;DHT22;10800;53.096;18.328;2022-10-14T23:06:39;10.90;99.90
21282;DHT22;10800;53.096;18.328;2022-10-14T23:11:54;10.90;99.90
21282;DHT22;10800;53.096;18.328;2022-10-14T23:17:06;10.90;99.90
21282;DHT22;10800;53.096;18.328;2022-10-14T23:22:12;11.00;99.90
21282;DHT22;10800;53.096;18.328;2022-10-14T23:27:51;11.00;99.90
21282;DHT22;10800;53.096;18.328;2022-10-14T23:33:00;11.10;99.90
21282;DHT22;10800;53.096;18.328;2022-10-14T23:38:13;11.10;99.90
21282;DHT22;10800;53.096;18.328;2022-10-14T23:43:32;11.10;99.90
21282;DHT22;10800;53.096;18.328;2022-10-14T23:48:45;11.10;99.90
21282;DHT22;10800;53.096;18.328;2022-10-14T23:53:53;11.10;99.90
21282;DHT22;10800;53.096;18.328;2022-10-14T23:59:05;11.10;99.90
